Time;durP1;ratioP1;P1;durP2;ratioP2;P2;SDS_P1;SDS_P2;PMS_P1;PMS_P2;Temp;Humidity;BMP_temperature;BMP_pressure;BME280_temperature;BME280_humidity;BME280_pressure;Samples;Min_cycle;Max_cycle;Signal;HPM_P1;HPM_P2
2022/03/16 00:01:26;;;;;;;12.90;7.15;;;13.20;74.30;;;;;;5039525;28;20017;-46
2022/03/16 00:03:52;;;;;;;19.02;7.60;;;13.20;71.00;;;;;;5039279;28;20507;-47
2022/03/16 00:06:17;;;;;;;17.50;7.80;;;13.20;73.60;;;;;;5039284;28;20119;-50
2022/03/16 00:08:43;;;;;;;15.30;8.00;;;13.20;73.00;;;;;;5039081;28;20036;-49
2022/03/16 00:11:09;;;;;;;12.82;7.40;;;13.20;74.30;;;;;;5039382;28;20025;-48
2022/03/16 00:13:34;;;;;;;17.42;7.18;;;13.10;73.20;;;;;;5039366;28;20029;-48
2022/03/16 00:16:00;;;;;;;13.65;7.40;;;13.20;73.70;;;;;;5039483;28;20064;-47
2022/03/16 00:18:26;;;;;;;16.20;7.18;;;13.10;73.90;;;;;;5038969;28;20029;-48
2022/03/16 00:20:52;;;;;;;15.48;8.07;;;13.10;75.90;;;;;;5038999;28;20101;-47
2022/03/16 00:23:18;;;;;;;15.27;7.72;;;13.10;74.20;;;;;;5038918;28;20107;-48
2022/03/16 00:25:44;;;;;;;16.13;8.20;;;13.10;74.60;;;;;;5039099;28;20037;-49
2022/03/16 00:28:10;;;;;;;16.42;7.30;;;13.10;74.70;;;;;;5038888;28;20049;-46
2022/03/16 00:30:37;;;;;;;13.30;7.38;;;13.10;73.20;;;;;;5038891;28;20033;-45
2022/03/16 00:33:03;;;;;;;14.55;7.82;;;13.10;74.20;;;;;;5038601;28;20516;-48
2022/03/16 00:35:29;;;;;;;19.38;8.52;;;13.10;74.50;;;;;;5038736;28;20144;-48
2022/03/16 00:37:54;;;;;;;18.08;8.30;;;13.10;73.80;;;;;;5038669;28;20045;-49
2022/03/16 00:40:20;;;;;;;14.63;8.45;;;13.10;73.60;;;;;;5038377;28;20026;-50
2022/03/16 00:42:46;;;;;;;17.52;8.75;;;13.10;76.20;;;;;;5038845;28;20040;-48
2022/03/16 00:45:12;;;;;;;17.65;8.15;;;13.10;71.70;;;;;;5038539;28;20032;-49
2022/03/16 00:47:38;;;;;;;13.95;7.25;;;13.10;71.20;;;;;;5038669;28;20100;-51
2022/03/16 00:50:04;;;;;;;15.52;8.43;;;13.10;73.60;;;;;;5038813;28;20385;-48
2022/03/16 00:52:30;;;;;;;17.65;8.95;;;13.10;74.40;;;;;;5038772;28;20021;-51
2022/03/16 00:54:56;;;;;;;19.00;9.50;;;13.10;72.10;;;;;;5038728;28;20036;-49
2022/03/16 00:57:21;;;;;;;16.48;8.35;;;13.10;71.40;;;;;;5038438;28;20061;-47
2022/03/16 00:59:47;;;;;;;14.60;8.38;;;13.10;74.90;;;;;;5038231;28;20021;-47
2022/03/16 01:02:13;;;;;;;14.35;7.93;;;13.10;73.90;;;;;;5038032;28;20029;-48
2022/03/16 01:04:39;;;;;;;17.38;8.30;;;13.10;75.80;;;;;;5038541;28;20021;-50
2022/03/16 01:07:05;;;;;;;17.15;9.43;;;13.10;75.80;;;;;;5038171;28;20029;-47
2022/03/16 01:09:31;;;;;;;18.35;8.82;;;13.10;74.00;;;;;;5038340;28;20493;-50
2022/03/16 01:11:57;;;;;;;19.30;8.63;;;13.10;75.40;;;;;;5038040;28;20029;-49
2022/03/16 01:14:23;;;;;;;12.98;7.93;;;13.10;74.80;;;;;;5037927;28;20029;-50
2022/03/16 01:16:49;;;;;;;15.07;8.23;;;13.10;76.70;;;;;;5038085;28;20025;-48
2022/03/16 01:19:15;;;;;;;14.95;8.07;;;13.10;78.20;;;;;;5037708;28;20025;-49
2022/03/16 01:21:41;;;;;;;15.95;7.68;;;13.10;74.70;;;;;;5038033;28;20053;-48
2022/03/16 01:24:08;;;;;;;15.07;8.50;;;13.10;74.60;;;;;;5037623;28;20053;-47
2022/03/16 01:26:34;;;;;;;16.02;7.85;;;13.10;74.20;;;;;;5037559;28;20021;-46
2022/03/16 01:29:01;;;;;;;16.23;8.38;;;13.10;75.30;;;;;;5037750;28;20029;-50
2022/03/16 01:31:27;;;;;;;15.23;7.20;;;13.00;75.00;;;;;;5037580;28;20057;-47
2022/03/16 01:33:53;;;;;;;14.77;7.28;;;13.00;73.10;;;;;;5037639;28;20393;-47
2022/03/16 01:36:19;;;;;;;14.30;7.72;;;13.00;74.70;;;;;;5037602;28;20053;-51
2022/03/16 01:38:45;;;;;;;16.35;8.52;;;13.00;74.90;;;;;;5037851;28;20109;-46
2022/03/16 01:41:11;;;;;;;25.13;9.55;;;12.90;73.40;;;;;;5037726;28;20055;-50
2022/03/16 01:43:37;;;;;;;20.88;9.32;;;13.00;74.00;;;;;;5037581;28;20034;-48
2022/03/16 01:46:03;;;;;;;16.88;9.38;;;13.00;74.50;;;;;;5037443;28;20504;-48
2022/03/16 01:48:29;;;;;;;19.98;9.50;;;12.90;74.00;;;;;;5037618;28;20032;-50
2022/03/16 01:50:55;;;;;;;18.83;9.82;;;12.90;74.20;;;;;;5037336;28;20022;-47
2022/03/16 01:53:21;;;;;;;16.88;8.88;;;12.90;73.60;;;;;;5037018;28;20028;-48
2022/03/16 01:55:47;;;;;;;15.15;9.10;;;12.90;76.30;;;;;;5036087;28;20026;-49
2022/03/16 01:58:14;;;;;;;15.35;8.18;;;12.90;76.30;;;;;;5037633;28;20037;-49
2022/03/16 02:00:41;;;;;;;17.25;8.52;;;12.90;75.20;;;;;;5037376;28;21131;-47
2022/03/16 02:03:07;;;;;;;17.60;9.10;;;12.90;77.50;;;;;;5037237;28;20033;-49
2022/03/16 02:05:33;;;;;;;15.40;8.95;;;12.90;75.90;;;;;;5037269;28;20025;-51
2022/03/16 02:07:59;;;;;;;15.60;9.30;;;12.90;75.40;;;;;;5037312;28;20033;-46
2022/03/16 02:10:26;;;;;;;15.00;8.13;;;12.90;74.40;;;;;;5035943;28;20029;-49
2022/03/16 02:12:52;;;;;;;16.27;9.13;;;12.90;77.50;;;;;;5037269;28;20054;-47
2022/03/16 02:15:21;;;;;;;17.83;8.65;;;12.90;74.10;;;;;;5037396;28;20025;-50
2022/03/16 02:17:50;;;;;;;18.90;8.80;;;12.90;77.90;;;;;;5036945;28;20049;-47
2022/03/16 02:20:17;;;;;;;17.88;9.82;;;12.90;75.80;;;;;;5037351;28;20029;-51
2022/03/16 02:22:54;;;;;;;18.80;9.98;;;13.00;78.50;;;;;;5036784;28;20036;-46
2022/03/16 02:25:20;;;;;;;17.48;8.95;;;13.00;75.90;;;;;;5037310;28;20080;-47
2022/03/16 02:27:46;;;;;;;16.48;8.73;;;13.00;78.70;;;;;;5037198;28;20030;-52
2022/03/16 02:30:12;;;;;;;16.05;8.85;;;13.00;75.00;;;;;;5037174;28;20362;-47
2022/03/16 02:32:38;;;;;;;15.57;8.63;;;13.00;75.70;;;;;;5036929;28;20034;-48
2022/03/16 02:35:04;;;;;;;19.33;9.85;;;13.00;74.70;;;;;;5037020;28;20022;-49
2022/03/16 02:37:30;;;;;;;16.02;8.57;;;13.00;74.20;;;;;;5037173;28;20492;-51
2022/03/16 02:39:56;;;;;;;21.00;9.30;;;13.00;78.30;;;;;;5037409;28;20018;-47
2022/03/16 02:42:24;;;;;;;19.30;10.25;;;13.00;81.20;;;;;;5036895;28;20033;-49
2022/03/16 02:44:50;;;;;;;16.15;9.32;;;13.00;76.40;;;;;;5037093;28;20030;-51
2022/03/16 02:47:16;;;;;;;17.85;9.52;;;13.00;75.40;;;;;;5037041;28;20397;-46
2022/03/16 02:49:42;;;;;;;19.13;10.05;;;13.00;75.20;;;;;;5037081;28;20565;-50
2022/03/16 02:52:09;;;;;;;20.70;10.25;;;13.00;75.00;;;;;;5036727;28;20037;-48
2022/03/16 02:54:35;;;;;;;17.25;9.15;;;13.00;77.70;;;;;;5037326;28;20024;-47
2022/03/16 02:57:01;;;;;;;15.65;8.65;;;13.00;78.20;;;;;;5036834;28;20029;-49
2022/03/16 02:59:27;;;;;;;17.27;10.13;;;13.00;74.70;;;;;;5036777;28;20044;-47
2022/03/16 03:01:53;;;;;;;15.00;8.38;;;13.00;76.90;;;;;;5036763;28;20037;-49
2022/03/16 03:04:19;;;;;;;17.50;8.65;;;13.00;77.10;;;;;;5039412;28;20505;-48
2022/03/16 03:06:45;;;;;;;13.70;8.35;;;13.00;78.10;;;;;;5040580;28;20104;-47
2022/03/16 03:09:11;;;;;;;12.57;8.60;;;13.00;77.60;;;;;;5040101;28;20490;-49
2022/03/16 03:11:37;;;;;;;16.60;8.52;;;13.00;78.60;;;;;;5040255;28;20029;-49
2022/03/16 03:14:03;;;;;;;19.15;8.85;;;13.00;79.90;;;;;;5040499;28;20421;-47
2022/03/16 03:16:29;;;;;;;15.35;8.23;;;13.00;77.30;;;;;;5040438;28;20385;-48
2022/03/16 03:18:54;;;;;;;14.00;7.55;;;13.00;80.20;;;;;;5040505;28;20412;-50
2022/03/16 03:21:20;;;;;;;14.20;7.85;;;13.00;76.60;;;;;;5040151;28;20037;-49
2022/03/16 03:23:46;;;;;;;15.70;7.93;;;13.00;78.00;;;;;;5040196;28;20440;-47
2022/03/16 03:26:12;;;;;;;17.23;8.32;;;13.00;76.20;;;;;;5040313;28;20048;-46
2022/03/16 03:28:37;;;;;;;17.33;8.73;;;13.00;77.30;;;;;;5040211;28;20036;-46
2022/03/16 03:31:03;;;;;;;16.90;7.32;;;13.00;75.10;;;;;;5040075;28;20029;-51
2022/03/16 03:33:30;;;;;;;16.85;8.05;;;13.00;77.40;;;;;;5040141;28;20025;-49
2022/03/16 03:35:56;;;;;;;17.95;7.65;;;13.00;79.20;;;;;;5039880;28;20049;-46
2022/03/16 03:38:22;;;;;;;19.00;8.35;;;13.00;78.90;;;;;;5039875;28;20021;-48
2022/03/16 03:40:47;;;;;;;16.20;7.88;;;13.00;77.70;;;;;;5039996;28;20060;-47
2022/03/16 03:43:13;;;;;;;16.55;8.35;;;13.00;75.60;;;;;;5039839;28;20036;-49
2022/03/16 03:45:39;;;;;;;19.35;7.45;;;13.00;75.80;;;;;;5040170;28;20033;-48
2022/03/16 03:48:05;;;;;;;20.33;7.90;;;13.00;78.10;;;;;;5039854;28;20026;-48
2022/03/16 03:50:31;;;;;;;14.52;7.05;;;13.10;78.90;;;;;;5039764;28;20025;-47
2022/03/16 03:52:56;;;;;;;15.07;8.10;;;13.10;77.20;;;;;;5039549;28;20045;-48
2022/03/16 03:55:23;;;;;;;15.55;6.88;;;13.10;78.50;;;;;;5039712;28;20057;-51
2022/03/16 03:57:49;;;;;;;18.60;6.97;;;13.10;78.90;;;;;;5039548;28;20076;-48
2022/03/16 04:00:15;;;;;;;18.45;7.60;;;13.10;76.10;;;;;;5039444;28;20018;-47
2022/03/16 04:02:50;;;;;;;17.30;7.35;;;13.10;78.70;;;;;;5039709;28;20021;-48
2022/03/16 04:05:20;;;;;;;15.57;7.80;;;13.10;80.90;;;;;;5039517;28;20030;-47
2022/03/16 04:07:48;;;;;;;15.50;6.90;;;13.10;81.40;;;;;;5039126;28;20508;-47
2022/03/16 04:10:14;;;;;;;15.73;7.80;;;13.00;78.30;;;;;;5039676;28;20025;-47
2022/03/16 04:12:40;;;;;;;23.52;7.63;;;13.10;76.20;;;;;;5039025;28;20021;-47
2022/03/16 04:15:06;;;;;;;18.88;7.65;;;13.10;75.70;;;;;;5038331;28;20036;-51
2022/03/16 04:17:32;;;;;;;16.13;7.63;;;13.10;80.00;;;;;;5039197;28;20100;-49
2022/03/16 04:19:58;;;;;;;16.08;7.55;;;13.10;79.80;;;;;;5039301;28;20036;-48
2022/03/16 04:22:28;;;;;;;18.02;7.93;;;13.10;77.00;;;;;;5039198;28;20389;-48
2022/03/16 04:24:55;;;;;;;15.43;7.07;;;13.10;80.70;;;;;;5038672;28;20056;-47
2022/03/16 04:27:22;;;;;;;18.10;7.13;;;13.10;79.10;;;;;;5038791;28;20136;-48
2022/03/16 04:29:47;;;;;;;20.45;7.03;;;13.10;79.10;;;;;;5037661;28;20037;-49
2022/03/16 04:32:13;;;;;;;19.45;6.47;;;13.10;78.90;;;;;;5038762;28;20072;-46
2022/03/16 04:34:39;;;;;;;16.92;7.38;;;13.10;79.60;;;;;;5038825;28;20037;-50
2022/03/16 04:37:05;;;;;;;13.10;6.65;;;13.00;79.90;;;;;;5039067;28;20424;-50
2022/03/16 04:39:32;;;;;;;17.95;7.00;;;13.00;79.10;;;;;;5038657;28;20401;-48
2022/03/16 04:41:58;;;;;;;17.67;6.88;;;13.00;78.60;;;;;;5038709;28;20029;-49
2022/03/16 04:44:24;;;;;;;14.90;6.80;;;13.10;78.40;;;;;;5038646;28;20021;-51
2022/03/16 04:46:50;;;;;;;19.95;7.60;;;13.00;77.70;;;;;;5038724;28;20578;-48
2022/03/16 04:49:16;;;;;;;20.30;7.35;;;13.10;76.30;;;;;;5038475;28;20024;-46
2022/03/16 04:51:42;;;;;;;19.45;7.30;;;13.10;78.90;;;;;;5038470;28;20030;-48
2022/03/16 04:54:08;;;;;;;16.17;7.38;;;13.10;77.00;;;;;;5038423;28;20036;-47
2022/03/16 04:56:35;;;;;;;20.17;6.38;;;13.00;79.40;;;;;;5038859;28;20044;-49
2022/03/16 04:59:01;;;;;;;20.38;7.60;;;13.10;79.20;;;;;;5038924;28;20025;-47
2022/03/16 05:01:27;;;;;;;21.38;7.43;;;13.10;78.30;;;;;;5038490;28;20377;-51
2022/03/16 05:03:53;;;;;;;25.33;7.68;;;13.10;78.10;;;;;;5038165;28;20037;-47
2022/03/16 05:06:19;;;;;;;17.92;7.45;;;13.10;79.20;;;;;;5038415;28;20030;-50
2022/03/16 05:08:47;;;;;;;15.30;6.38;;;13.10;79.10;;;;;;5038202;28;20032;-48
2022/03/16 05:11:14;;;;;;;17.92;6.97;;;13.10;79.10;;;;;;5037962;28;20051;-48
2022/03/16 05:13:40;;;;;;;17.98;8.20;;;13.10;79.10;;;;;;5038526;28;20025;-46
2022/03/16 05:16:07;;;;;;;17.70;6.90;;;13.10;79.60;;;;;;5037993;28;20017;-50
2022/03/16 05:18:33;;;;;;;17.52;6.45;;;13.20;77.80;;;;;;5038280;28;20018;-49
2022/03/16 05:20:59;;;;;;;16.85;6.60;;;13.10;77.80;;;;;;5038135;28;20108;-52
2022/03/16 05:23:25;;;;;;;18.10;7.10;;;13.10;79.20;;;;;;5037700;28;20046;-47
2022/03/16 05:25:51;;;;;;;22.67;8.20;;;13.10;77.30;;;;;;5037899;28;20021;-49
2022/03/16 05:28:17;;;;;;;16.35;6.80;;;13.20;77.60;;;;;;5037648;28;20021;-48
2022/03/16 05:30:44;;;;;;;20.30;7.78;;;13.20;77.20;;;;;;5037933;28;20440;-49
2022/03/16 05:33:10;;;;;;;21.23;7.68;;;13.10;76.50;;;;;;5037516;28;20522;-47
2022/03/16 05:35:36;;;;;;;15.77;7.20;;;13.10;75.90;;;;;;5037679;28;20022;-49
2022/03/16 05:38:05;;;;;;;17.60;7.00;;;13.20;77.50;;;;;;5037555;28;20036;-47
2022/03/16 05:40:31;;;;;;;19.42;7.70;;;13.20;76.60;;;;;;5037824;28;20025;-50
2022/03/16 05:42:57;;;;;;;18.77;8.15;;;13.10;76.90;;;;;;5037509;28;20036;-48
2022/03/16 05:45:22;;;;;;;17.83;7.30;;;13.20;76.60;;;;;;5037560;28;20064;-48
2022/03/16 05:47:48;;;;;;;21.35;7.47;;;13.20;76.60;;;;;;5037486;28;20037;-49
2022/03/16 05:50:14;;;;;;;19.80;7.35;;;13.10;76.80;;;;;;5037619;28;20022;-51
2022/03/16 05:52:41;;;;;;;19.98;7.72;;;13.10;79.00;;;;;;5037456;28;20052;-49
2022/03/16 05:55:08;;;;;;;18.95;7.55;;;13.20;79.20;;;;;;5037452;28;20051;-52
2022/03/16 05:57:37;;;;;;;23.80;7.93;;;13.10;78.90;;;;;;5036240;28;20018;-50
2022/03/16 06:00:03;;;;;;;25.02;8.25;;;13.20;78.90;;;;;;5037173;28;20022;-46
2022/03/16 06:02:29;;;;;;;20.30;8.38;;;13.20;79.10;;;;;;5037430;28;20021;-51
2022/03/16 06:04:54;;;;;;;29.08;8.70;;;13.10;80.40;;;;;;5037785;28;20492;-47
2022/03/16 06:07:20;;;;;;;26.30;8.75;;;13.10;79.40;;;;;;5037338;28;20091;-46
2022/03/16 06:09:47;;;;;;;20.30;7.63;;;13.10;79.50;;;;;;5037358;28;20029;-49
2022/03/16 06:12:13;;;;;;;20.17;6.85;;;13.10;80.70;;;;;;5037347;28;20040;-47
2022/03/16 06:14:39;;;;;;;23.80;8.73;;;13.00;78.60;;;;;;5037506;28;20466;-46
2022/03/16 06:17:05;;;;;;;14.55;7.65;;;13.00;78.90;;;;;;5037401;28;20025;-49
2022/03/16 06:19:30;;;;;;;20.42;7.63;;;13.00;80.00;;;;;;5037404;28;20068;-48
2022/03/16 06:21:56;;;;;;;18.02;8.18;;;13.10;82.00;;;;;;5037368;28;20033;-51
2022/03/16 06:24:22;;;;;;;20.00;8.13;;;13.10;81.50;;;;;;5037103;28;20053;-49
2022/03/16 06:26:48;;;;;;;24.20;8.63;;;13.10;78.30;;;;;;5037152;28;20064;-50
2022/03/16 06:29:13;;;;;;;20.23;8.18;;;13.10;78.30;;;;;;5037364;28;20029;-48
2022/03/16 06:31:39;;;;;;;22.40;9.10;;;13.10;79.80;;;;;;5037248;28;20032;-47
2022/03/16 06:34:05;;;;;;;20.20;7.85;;;13.10;78.20;;;;;;5037478;28;20022;-48
2022/03/16 06:36:31;;;;;;;16.75;8.35;;;13.10;79.50;;;;;;5037071;28;20021;-49
2022/03/16 06:38:57;;;;;;;24.13;7.88;;;13.10;77.60;;;;;;5039755;28;20029;-47
2022/03/16 06:41:23;;;;;;;22.13;8.60;;;13.10;78.00;;;;;;5040924;28;20038;-47
2022/03/16 06:43:49;;;;;;;23.13;7.57;;;13.10;79.10;;;;;;5041011;28;20435;-49
2022/03/16 06:46:15;;;;;;;21.00;8.52;;;13.10;78.60;;;;;;5041034;28;20112;-48
2022/03/16 06:48:42;;;;;;;21.65;8.07;;;13.10;81.00;;;;;;5041222;28;20092;-46
2022/03/16 06:51:07;;;;;;;20.00;7.57;;;13.10;82.20;;;;;;5040732;28;20102;-47
2022/03/16 06:53:33;;;;;;;21.77;7.70;;;13.10;81.60;;;;;;5040833;28;20018;-48
2022/03/16 06:56:00;;;;;;;19.35;7.53;;;13.10;80.40;;;;;;5040697;28;20029;-47
2022/03/16 06:58:25;;;;;;;27.50;8.38;;;13.10;79.40;;;;;;5040038;28;20045;-48
2022/03/16 07:00:51;;;;;;;23.40;7.70;;;13.10;80.00;;;;;;5040494;28;20036;-52
2022/03/16 07:03:17;;;;;;;23.88;7.70;;;13.10;80.20;;;;;;5040567;28;20056;-51
2022/03/16 07:05:43;;;;;;;20.60;7.50;;;13.20;81.20;;;;;;5040042;28;20022;-53
2022/03/16 07:08:13;;;;;;;16.90;6.72;;;13.20;80.40;;;;;;5040400;28;20029;-49
2022/03/16 07:10:41;;;;;;;16.67;7.88;;;13.20;81.20;;;;;;5039333;28;20112;-48
2022/03/16 07:13:08;;;;;;;19.95;7.95;;;13.20;80.70;;;;;;5039811;28;20049;-51
2022/03/16 07:15:35;;;;;;;16.50;6.55;;;13.20;78.60;;;;;;5040069;28;20497;-48
2022/03/16 07:18:04;;;;;;;19.38;7.80;;;13.20;82.60;;;;;;5040051;28;20018;-49
2022/03/16 07:20:30;;;;;;;15.27;6.88;;;13.20;82.30;;;;;;5040238;28;20018;-47
2022/03/16 07:23:13;;;;;;;17.45;7.50;;;13.20;81.50;;;;;;5040214;28;20017;-48
2022/03/16 07:25:41;;;;;;;17.70;7.68;;;13.30;80.00;;;;;;5039829;28;20095;-48
2022/03/16 07:28:08;;;;;;;18.48;7.50;;;13.30;78.90;;;;;;5039960;28;20018;-51
2022/03/16 07:30:35;;;;;;;19.92;7.65;;;13.30;80.50;;;;;;5039908;28;20060;-51
2022/03/16 07:33:02;;;;;;;23.70;8.60;;;13.30;80.10;;;;;;5039944;28;20013;-47
2022/03/16 07:35:28;;;;;;;19.20;8.55;;;13.30;83.10;;;;;;5039725;28;20438;-47
2022/03/16 07:37:55;;;;;;;20.08;7.82;;;13.30;81.70;;;;;;5039774;28;20018;-50
2022/03/16 07:40:22;;;;;;;17.67;7.50;;;13.30;81.60;;;;;;5039720;28;20179;-49
2022/03/16 07:42:49;;;;;;;19.10;8.40;;;13.30;80.20;;;;;;5040160;28;20143;-48
2022/03/16 07:45:18;;;;;;;18.35;8.25;;;13.30;80.40;;;;;;5039689;28;20373;-47
2022/03/16 07:47:47;;;;;;;16.65;7.15;;;13.30;82.10;;;;;;5039607;28;20453;-50
2022/03/16 07:50:13;;;;;;;18.65;7.18;;;13.30;82.30;;;;;;5038323;28;20100;-49
2022/03/16 07:52:39;;;;;;;19.25;8.50;;;13.30;82.60;;;;;;5038704;28;20493;-50
2022/03/16 07:55:06;;;;;;;23.17;8.27;;;13.30;79.80;;;;;;5039331;28;20120;-51
2022/03/16 07:57:32;;;;;;;21.50;8.15;;;13.40;80.50;;;;;;5039122;28;20025;-49
2022/03/16 07:59:58;;;;;;;20.95;8.93;;;13.40;82.50;;;;;;5039292;28;20075;-48
2022/03/16 08:02:27;;;;;;;20.60;7.75;;;13.40;81.40;;;;;;5039321;28;20029;-50
2022/03/16 08:04:53;;;;;;;21.55;8.60;;;13.40;81.10;;;;;;5039498;28;20041;-53
2022/03/16 08:07:19;;;;;;;22.20;8.52;;;13.40;81.30;;;;;;5037925;28;20032;-48
2022/03/16 08:09:45;;;;;;;19.33;8.18;;;13.40;81.40;;;;;;5039395;28;20107;-49
2022/03/16 08:12:10;;;;;;;26.67;10.05;;;13.40;82.90;;;;;;5039239;28;20052;-49
2022/03/16 08:14:36;;;;;;;27.80;10.10;;;13.40;81.70;;;;;;5039187;28;20052;-50
2022/03/16 08:17:02;;;;;;;20.85;9.45;;;13.40;81.40;;;;;;5039226;28;20030;-51
2022/03/16 08:19:28;;;;;;;24.58;10.57;;;13.40;79.30;;;;;;5039341;28;20057;-48
2022/03/16 08:21:53;;;;;;;57.35;36.28;;;13.50;79.10;;;;;;5039093;28;20028;-47
2022/03/16 08:24:19;;;;;;;28.83;14.48;;;13.50;80.40;;;;;;5038848;28;20058;-49
2022/03/16 08:26:45;;;;;;;26.25;11.35;;;13.50;80.30;;;;;;5039039;28;20033;-48
2022/03/16 08:29:11;;;;;;;24.73;11.40;;;13.50;81.80;;;;;;5039047;28;20060;-47
2022/03/16 08:31:37;;;;;;;29.05;13.27;;;13.50;82.20;;;;;;5038982;28;20501;-50
2022/03/16 08:34:03;;;;;;;28.88;12.32;;;13.50;80.70;;;;;;5038889;28;20063;-48
2022/03/16 08:36:29;;;;;;;22.08;8.65;;;13.60;81.10;;;;;;5038498;28;20036;-47
2022/03/16 08:38:55;;;;;;;26.92;9.45;;;13.60;80.60;;;;;;5038672;28;20033;-48
2022/03/16 08:41:21;;;;;;;22.90;9.07;;;13.60;79.90;;;;;;5038644;28;20029;-49
2022/03/16 08:43:47;;;;;;;27.45;11.35;;;13.60;81.70;;;;;;5039023;28;20021;-49
2022/03/16 08:46:13;;;;;;;24.35;10.18;;;13.60;81.50;;;;;;5038599;28;20036;-46
2022/03/16 08:48:38;;;;;;;22.80;10.52;;;13.60;80.50;;;;;;5038471;28;20488;-47
2022/03/16 08:51:08;;;;;;;25.80;9.88;;;13.60;81.10;;;;;;5038405;28;20030;-48
2022/03/16 08:53:34;;;;;;;23.88;9.88;;;13.60;82.80;;;;;;5038390;28;20041;-49
2022/03/16 08:56:01;;;;;;;23.85;10.25;;;13.60;83.80;;;;;;5038531;28;20105;-48
2022/03/16 08:58:27;;;;;;;24.23;11.15;;;13.70;83.50;;;;;;5038128;28;20520;-49
2022/03/16 09:00:53;;;;;;;26.88;10.93;;;13.70;81.40;;;;;;5038319;28;20072;-46
2022/03/16 09:03:19;;;;;;;29.73;13.82;;;13.70;81.10;;;;;;5038318;28;20021;-50
2022/03/16 09:05:45;;;;;;;25.75;11.57;;;13.80;79.40;;;;;;5038192;28;20035;-48
2022/03/16 09:08:11;;;;;;;24.73;9.50;;;13.80;81.00;;;;;;5038211;28;20030;-50
2022/03/16 09:10:38;;;;;;;27.92;11.07;;;13.70;83.50;;;;;;5038009;28;20029;-50
2022/03/16 09:13:04;;;;;;;36.95;10.32;;;13.80;81.80;;;;;;5037956;28;20101;-49
2022/03/16 09:15:30;;;;;;;26.40;10.57;;;13.80;81.50;;;;;;5038017;28;20587;-50
2022/03/16 09:17:56;;;;;;;19.42;9.90;;;13.80;80.60;;;;;;5038148;28;20104;-52
2022/03/16 09:20:22;;;;;;;28.98;11.38;;;13.80;81.70;;;;;;5037825;28;20057;-51
2022/03/16 09:22:48;;;;;;;27.52;11.00;;;13.80;81.40;;;;;;5038218;28;20071;-53
2022/03/16 09:25:14;;;;;;;25.27;9.48;;;13.80;81.40;;;;;;5038050;28;20025;-50
2022/03/16 09:27:39;;;;;;;30.67;10.70;;;13.80;81.70;;;;;;5037874;28;20025;-46
2022/03/16 09:30:06;;;;;;;33.90;11.88;;;13.80;81.30;;;;;;5037672;28;20075;-52
2022/03/16 09:32:33;;;;;;;33.33;11.32;;;13.80;79.30;;;;;;5037600;28;20046;-51
2022/03/16 09:35:00;;;;;;;29.85;12.02;;;13.80;81.20;;;;;;5037807;28;20030;-50
2022/03/16 09:37:26;;;;;;;31.08;10.52;;;13.80;80.80;;;;;;5037957;28;20021;-47
2022/03/16 09:39:52;;;;;;;31.38;11.40;;;13.80;81.50;;;;;;5038067;28;20029;-48
2022/03/16 09:42:22;;;;;;;27.63;9.82;;;13.80;81.60;;;;;;5038051;28;20417;-49
2022/03/16 09:44:51;;;;;;;32.17;10.93;;;13.80;81.10;;;;;;5037991;28;20037;-50
2022/03/16 09:47:18;;;;;;;23.70;10.55;;;13.80;80.90;;;;;;5037821;28;20053;-47
2022/03/16 09:49:45;;;;;;;27.42;10.35;;;13.90;81.50;;;;;;5038013;28;20044;-52
2022/03/16 09:52:11;;;;;;;30.25;11.70;;;13.90;81.80;;;;;;5037908;28;20026;-48
2022/03/16 09:54:37;;;;;;;31.13;11.73;;;14.00;81.90;;;;;;5037904;28;20033;-51
2022/03/16 09:57:03;;;;;;;29.35;11.85;;;14.00;81.70;;;;;;5037683;28;20030;-53
2022/03/16 09:59:29;;;;;;;31.73;13.13;;;14.00;82.80;;;;;;5037430;28;20013;-48
2022/03/16 10:02:10;;;;;;;36.45;14.35;;;14.00;84.10;;;;;;5037281;28;20026;-52
2022/03/16 10:04:37;;;;;;;33.10;12.60;;;14.00;81.90;;;;;;5037469;28;20079;-50
2022/03/16 10:07:05;;;;;;;27.90;12.23;;;14.00;81.90;;;;;;5037300;28;20041;-52
2022/03/16 10:15:18;;;;;;;32.85;12.32;;;14.00;85.60;;;;;;5041578;28;20354;-50
2022/03/16 10:17:49;;;;;;;38.83;15.25;;;13.90;84.90;;;;;;5040911;28;20032;-51
2022/03/16 10:20:26;;;;;;;31.75;13.98;;;13.90;83.10;;;;;;5041065;28;20393;-47
2022/03/16 10:23:02;;;;;;;45.05;14.68;;;13.90;87.00;;;;;;5040858;28;20026;-47
2022/03/16 10:25:32;;;;;;;38.05;12.95;;;13.80;86.10;;;;;;5041057;28;20033;-52
2022/03/16 10:28:12;;;;;;;35.35;13.50;;;13.80;84.20;;;;;;5039732;28;20105;-51
2022/03/16 10:30:58;;;;;;;38.38;14.68;;;13.80;86.20;;;;;;5040816;28;20369;-49
2022/03/16 10:33:30;;;;;;;36.10;14.43;;;13.80;84.00;;;;;;5041068;28;20041;-47
2022/03/16 10:36:07;;;;;;;40.50;14.48;;;13.70;84.60;;;;;;5041489;28;20458;-52
2022/03/16 10:38:39;;;;;;;34.35;13.13;;;13.70;87.30;;;;;;5041043;28;20064;-50
2022/03/16 10:46:34;;;;;;;31.92;12.80;;;13.70;86.20;;;;;;5040669;28;20033;-49
2022/03/16 10:46:46;;;;;;;;;;;13.70;88.90;;;;;;5041392;28;20465;-50
2022/03/16 10:49:15;;;;;;;30.75;13.10;;;13.70;88.00;;;;;;5040894;28;19912;-51
2022/03/16 10:51:41;;;;;;;35.17;12.85;;;13.70;86.10;;;;;;5040561;28;20496;-52
2022/03/16 10:54:06;;;;;;;31.15;13.48;;;13.70;85.50;;;;;;5040498;28;20025;-51
2022/03/16 10:56:33;;;;;;;29.15;12.93;;;13.80;82.10;;;;;;5040845;28;20028;-49
2022/03/16 10:59:00;;;;;;;27.05;11.23;;;13.70;87.40;;;;;;5040926;28;20384;-51
2022/03/16 11:01:27;;;;;;;22.98;10.40;;;13.70;87.10;;;;;;5040928;28;20031;-52
2022/03/16 11:03:58;;;;;;;12.95;7.30;;;13.60;87.30;;;;;;5040618;28;20049;-51
2022/03/16 11:06:25;;;;;;;13.02;7.50;;;13.60;86.10;;;;;;5040530;28;20030;-49
2022/03/16 11:08:51;;;;;;;12.27;7.55;;;13.60;85.60;;;;;;5040587;28;20030;-52
2022/03/16 11:14:03;;;;;;;10.80;6.78;;;13.50;86.20;;;;;;5040832;28;20113;-49
2022/03/16 11:16:30;;;;;;;12.85;7.10;;;13.50;87.20;;;;;;5040056;28;20032;-49
2022/03/16 11:18:58;;;;;;;12.18;7.40;;;13.40;84.60;;;;;;5040287;28;20402;-49
2022/03/16 11:22:01;;;;;;;11.98;7.68;;;13.40;85.90;;;;;;5040437;28;20099;-50
2022/03/16 11:24:33;;;;;;;11.88;7.55;;;13.40;85.20;;;;;;5039614;28;20119;-50
2022/03/16 11:27:27;;;;;;;14.25;8.25;;;13.40;83.80;;;;;;5039819;28;20091;-52
2022/03/16 11:30:01;;;;;;;12.40;7.88;;;13.30;82.90;;;;;;5040129;28;20029;-49
2022/03/16 11:32:34;;;;;;;12.18;7.63;;;13.30;82.20;;;;;;5039634;28;20030;-51
2022/03/16 11:35:02;;;;;;;11.70;7.03;;;13.20;85.00;;;;;;5039911;28;20091;-49
2022/03/16 11:37:33;;;;;;;12.30;7.00;;;13.10;83.30;;;;;;5040203;28;20017;-50
2022/03/16 11:40:11;;;;;;;12.07;6.95;;;13.00;84.00;;;;;;5039749;28;20397;-48
2022/03/16 11:43:08;;;;;;;11.13;6.20;;;13.00;83.60;;;;;;5039897;28;20405;-50
2022/03/16 11:45:41;;;;;;;10.73;6.05;;;12.90;84.20;;;;;;5039441;28;20029;-51
2022/03/16 11:48:31;;;;;;;10.07;6.13;;;12.80;82.20;;;;;;5039786;28;20374;-53
2022/03/16 11:51:08;;;;;;;11.13;6.97;;;12.80;83.10;;;;;;5039846;28;20128;-51
2022/03/16 11:56:40;;;;;;;10.63;5.28;;;12.70;84.00;;;;;;5039727;28;20029;-52
2022/03/16 11:59:16;;;;;;;10.95;5.88;;;12.70;83.70;;;;;;5039694;28;20029;-51
2022/03/16 12:01:49;;;;;;;9.15;4.88;;;12.70;82.50;;;;;;5039407;28;20048;-48
2022/03/16 12:04:19;;;;;;;11.75;5.03;;;12.60;83.60;;;;;;5039532;28;20037;-51
2022/03/16 12:07:12;;;;;;;9.80;4.95;;;12.60;83.70;;;;;;5039484;28;20080;-51
2022/03/16 12:10:03;;;;;;;9.27;4.85;;;12.60;84.30;;;;;;5039202;28;20108;-51
2022/03/16 12:15:29;;;;;;;9.43;4.93;;;12.50;84.20;;;;;;5039253;28;20175;-50
2022/03/16 12:17:57;;;;;;;9.35;4.80;;;12.50;85.20;;;;;;5039113;28;20021;-51
2022/03/16 12:20:23;;;;;;;8.60;4.63;;;12.50;85.30;;;;;;5038808;28;20037;-48
2022/03/16 12:22:50;;;;;;;8.80;4.65;;;12.50;83.40;;;;;;5038784;28;20022;-52
2022/03/16 12:25:27;;;;;;;8.75;4.75;;;12.50;82.20;;;;;;5039157;28;20101;-49
2022/03/16 12:30:52;;;;;;;9.18;4.53;;;12.50;83.90;;;;;;5039048;28;20032;-53
2022/03/16 12:33:23;;;;;;;7.47;3.92;;;12.50;84.80;;;;;;5038778;28;20033;-51
2022/03/16 12:36:04;;;;;;;8.07;3.80;;;12.40;84.70;;;;;;5038204;28;20044;-49
2022/03/16 12:38:33;;;;;;;6.50;3.10;;;12.40;85.50;;;;;;5038945;28;20025;-50
2022/03/16 12:43:49;;;;;;;5.72;2.72;;;12.40;84.10;;;;;;5038639;28;20041;-51
2022/03/16 12:46:36;;;;;;;5.85;2.95;;;12.40;84.30;;;;;;5038477;28;20108;-50
2022/03/16 12:49:03;;;;;;;7.32;3.17;;;12.40;84.50;;;;;;5038784;28;20026;-49
2022/03/16 12:51:35;;;;;;;6.88;3.25;;;12.40;86.40;;;;;;5038294;28;20026;-49
2022/03/16 12:54:01;;;;;;;5.15;2.88;;;12.50;87.10;;;;;;5038374;28;20059;-48
2022/03/16 12:56:27;;;;;;;5.00;2.75;;;12.50;87.60;;;;;;5037875;28;20393;-51
2022/03/16 12:58:55;;;;;;;4.95;2.80;;;12.60;86.40;;;;;;5038274;28;20033;-53
2022/03/16 13:01:22;;;;;;;5.47;3.03;;;12.60;87.20;;;;;;5038424;28;20053;-51